Time;durP1;ratioP1;P1;durP2;ratioP2;P2;SDS_P1;SDS_P2;PMS_P1;PMS_P2;Temp;Humidity;BMP_temperature;BMP_pressure;BME280_temperature;BME280_humidity;BME280_pressure;Samples;Min_cycle;Max_cycle;Signal;HPM_P1;HPM_P2
2021/06/30 00:00:18;;;;;;;2.10;1.20;;;16.00;99.90;;;;;;1939061;72;21067;-74
2021/06/30 00:02:44;;;;;;;1.90;1.02;;;16.00;99.90;;;;;;1928529;73;21439;-74
2021/06/30 00:05:10;;;;;;;2.58;1.47;;;16.10;99.90;;;;;;1936266;72;21551;-74
2021/06/30 00:07:36;;;;;;;2.00;1.30;;;16.10;99.90;;;;;;1922879;72;21571;-74
2021/06/30 00:10:02;;;;;;;7.10;1.55;;;16.20;99.90;;;;;;1938439;72;21481;-75
2021/06/30 00:12:30;;;;;;;1.20;1.10;;;16.20;99.90;;;;;;1943377;72;21466;-75
2021/06/30 00:14:56;;;;;;;2.12;1.32;;;16.20;99.90;;;;;;1944798;72;21320;-75
2021/06/30 00:17:22;;;;;;;2.72;1.50;;;16.20;99.90;;;;;;1937720;72;21129;-75
2021/06/30 00:19:48;;;;;;;1.22;1.12;;;16.30;99.90;;;;;;1935323;72;21051;-74
2021/06/30 00:22:14;;;;;;;1.30;1.05;;;16.30;99.90;;;;;;1941115;72;21181;-74
2021/06/30 00:24:41;;;;;;;2.85;1.27;;;16.30;99.90;;;;;;1948327;72;21085;-74
2021/06/30 00:27:07;;;;;;;4.83;1.50;;;16.20;99.90;;;;;;1936982;71;21237;-74
2021/06/30 00:29:33;;;;;;;3.95;1.25;;;16.20;99.90;;;;;;1934863;73;21038;-75
2021/06/30 00:31:59;;;;;;;3.22;1.22;;;16.10;99.90;;;;;;1957402;72;21089;-74
2021/06/30 00:34:25;;;;;;;2.15;1.17;;;16.20;99.90;;;;;;1929692;72;21082;-74
2021/06/30 00:36:51;;;;;;;1.42;0.93;;;16.30;99.90;;;;;;1932601;72;21482;-74
2021/06/30 00:39:19;;;;;;;2.17;1.15;;;16.30;99.90;;;;;;1935309;72;21480;-74
2021/06/30 00:41:45;;;;;;;1.27;1.07;;;16.20;99.90;;;;;;1951820;72;21196;-74
2021/06/30 00:44:11;;;;;;;1.57;0.93;;;16.20;99.90;;;;;;1945645;73;21156;-74
2021/06/30 00:46:37;;;;;;;3.10;1.20;;;16.30;99.90;;;;;;1942086;72;21082;-74
2021/06/30 00:49:04;;;;;;;3.92;0.90;;;16.40;99.90;;;;;;1934659;72;21075;-74
2021/06/30 00:51:30;;;;;;;2.27;1.05;;;16.40;99.90;;;;;;1949498;72;21622;-75
2021/06/30 00:53:56;;;;;;;1.62;0.90;;;16.50;99.90;;;;;;1948074;73;21490;-75
2021/06/30 00:56:25;;;;;;;3.02;1.22;;;16.50;99.90;;;;;;1949968;72;21160;-75
2021/06/30 00:58:51;;;;;;;4.62;1.10;;;16.40;99.90;;;;;;1930056;72;21091;-75
2021/06/30 01:01:17;;;;;;;0.90;0.90;;;16.30;99.90;;;;;;1933971;73;21139;-75
2021/06/30 01:03:43;;;;;;;1.40;0.80;;;16.30;99.90;;;;;;1942896;72;21193;-75
2021/06/30 01:06:10;;;;;;;6.53;0.98;;;16.30;99.90;;;;;;1949677;72;21078;-76
2021/06/30 01:08:36;;;;;;;5.17;1.05;;;16.20;99.90;;;;;;1937864;72;21039;-76
2021/06/30 01:11:02;;;;;;;6.85;0.80;;;16.30;99.90;;;;;;1959800;72;21151;-77
2021/06/30 01:13:28;;;;;;;2.30;0.85;;;16.40;99.90;;;;;;1954915;72;21137;-76
2021/06/30 01:15:55;;;;;;;1.95;0.90;;;16.50;99.90;;;;;;1924750;73;21151;-76
2021/06/30 01:18:21;;;;;;;1.52;0.70;;;16.50;99.90;;;;;;1944750;72;21161;-76
2021/06/30 01:20:47;;;;;;;0.60;0.55;;;16.50;99.90;;;;;;1938539;73;21090;-75
2021/06/30 01:23:13;;;;;;;3.12;0.60;;;16.60;99.90;;;;;;1939020;72;21541;-75
2021/06/30 01:25:39;;;;;;;1.10;0.70;;;16.50;99.90;;;;;;1955197;72;21492;-75
2021/06/30 01:28:06;;;;;;;3.47;0.70;;;16.60;99.90;;;;;;1929224;73;21485;-75
2021/06/30 01:30:32;;;;;;;3.65;0.80;;;16.50;99.90;;;;;;1940055;73;21575;-75
2021/06/30 01:32:58;;;;;;;1.05;0.72;;;16.50;99.90;;;;;;1946133;72;21078;-75
2021/06/30 01:35:24;;;;;;;4.12;1.05;;;16.60;99.90;;;;;;1949586;72;21074;-75
2021/06/30 01:37:50;;;;;;;1.20;0.65;;;16.70;99.90;;;;;;1936781;72;21367;-75
2021/06/30 01:40:16;;;;;;;0.82;0.45;;;16.60;99.90;;;;;;1936494;72;21031;-75
2021/06/30 01:42:42;;;;;;;2.47;0.68;;;16.60;99.90;;;;;;1938961;72;21193;-75
2021/06/30 01:45:08;;;;;;;6.80;0.70;;;16.60;99.90;;;;;;1939630;73;21152;-75
2021/06/30 01:47:35;;;;;;;5.53;0.65;;;16.70;99.90;;;;;;1955220;72;21070;-75
2021/06/30 01:50:01;;;;;;;2.25;0.50;;;16.60;99.90;;;;;;1943452;72;21040;-74
2021/06/30 01:52:29;;;;;;;2.15;0.50;;;16.60;99.90;;;;;;1946946;72;21077;-75
2021/06/30 01:54:55;;;;;;;6.70;0.62;;;16.60;99.90;;;;;;1947520;72;21189;-75
2021/06/30 02:00:05;;;;;;;4.65;0.80;;;16.50;99.90;;;;;;1942848;72;21128;-74
2021/06/30 02:02:31;;;;;;;0.40;0.40;;;16.30;99.90;;;;;;1939132;72;21079;-74
2021/06/30 02:04:57;;;;;;;3.15;0.30;;;16.30;99.90;;;;;;1949298;72;21073;-75
2021/06/30 02:07:23;;;;;;;0.20;0.20;;;16.10;99.90;;;;;;1930762;73;21090;-75
2021/06/30 02:09:49;;;;;;;0.20;0.20;;;15.90;99.90;;;;;;1933548;73;21066;-74
2021/06/30 02:12:15;;;;;;;2.92;0.33;;;15.80;99.90;;;;;;1946420;72;21152;-75
2021/06/30 02:14:42;;;;;;;1.40;0.45;;;15.80;99.90;;;;;;1944706;72;21158;-75
2021/06/30 02:17:08;;;;;;;3.98;0.45;;;15.80;99.90;;;;;;1949731;72;21205;-75
2021/06/30 02:19:34;;;;;;;0.20;0.20;;;15.80;99.90;;;;;;1941689;72;21066;-75
2021/06/30 02:22:00;;;;;;;0.40;0.40;;;15.60;99.90;;;;;;1929192;73;21047;-75
2021/06/30 02:24:26;;;;;;;3.62;0.45;;;15.70;99.90;;;;;;1948739;72;21144;-74
2021/06/30 02:26:52;;;;;;;1.05;0.37;;;15.60;99.90;;;;;;1940491;72;21078;-75
2021/06/30 02:29:18;;;;;;;0.40;0.33;;;15.70;99.90;;;;;;1925499;72;21136;-74
2021/06/30 02:31:44;;;;;;;0.72;0.35;;;15.70;99.90;;;;;;1948429;72;21039;-75
2021/06/30 02:34:11;;;;;;;0.82;0.37;;;15.70;99.90;;;;;;1940599;72;21154;-75
2021/06/30 02:36:37;;;;;;;2.72;0.40;;;15.60;99.90;;;;;;1936873;72;21070;-75
2021/06/30 02:39:03;;;;;;;1.00;0.40;;;15.60;99.90;;;;;;1933748;72;21152;-75
2021/06/30 02:41:29;;;;;;;0.82;0.30;;;15.60;99.90;;;;;;1949084;72;21047;-75
2021/06/30 02:43:55;;;;;;;3.40;0.50;;;15.60;99.90;;;;;;1931307;72;21075;-75
2021/06/30 02:46:21;;;;;;;1.02;0.30;;;15.50;99.90;;;;;;1932551;73;21147;-74
2021/06/30 02:48:47;;;;;;;0.98;0.60;;;15.40;99.90;;;;;;1943427;72;21086;-75
2021/06/30 02:51:14;;;;;;;0.20;0.20;;;15.40;99.90;;;;;;1940457;72;21066;-75
2021/06/30 02:53:40;;;;;;;1.37;0.45;;;15.40;99.90;;;;;;1943383;72;21054;-76
2021/06/30 02:56:07;;;;;;;0.53;0.25;;;15.40;99.90;;;;;;1939311;72;21075;-76
2021/06/30 02:58:33;;;;;;;0.80;0.50;;;15.40;99.90;;;;;;1951400;72;21485;-76
2021/06/30 03:00:59;;;;;;;1.02;0.45;;;15.40;99.90;;;;;;1944002;72;21569;-76
2021/06/30 03:03:25;;;;;;;6.22;0.47;;;15.40;99.90;;;;;;1940564;71;21265;-76
2021/06/30 03:05:51;;;;;;;0.82;0.30;;;15.40;99.90;;;;;;1951652;73;21138;-75
2021/06/30 03:08:17;;;;;;;0.80;0.23;;;15.30;99.90;;;;;;1941105;72;21040;-76
2021/06/30 03:10:43;;;;;;;1.52;0.40;;;15.30;99.90;;;;;;1940786;72;21144;-77
2021/06/30 03:13:09;;;;;;;1.07;0.35;;;15.40;99.90;;;;;;1941517;72;21077;-76
2021/06/30 03:15:36;;;;;;;2.30;0.57;;;15.40;99.90;;;;;;1941336;72;21078;-76
2021/06/30 03:18:02;;;;;;;4.72;0.30;;;15.40;99.90;;;;;;1928219;73;21043;-76
2021/06/30 03:20:28;;;;;;;5.92;0.60;;;15.40;99.90;;;;;;1941882;72;21082;-75
2021/06/30 03:22:54;;;;;;;9.63;0.50;;;15.40;99.90;;;;;;1938162;72;21074;-75
2021/06/30 03:25:20;;;;;;;0.50;0.20;;;15.30;99.90;;;;;;1936057;72;21326;-75
2021/06/30 03:27:46;;;;;;;0.90;0.50;;;15.30;99.90;;;;;;1942380;72;21108;-76
2021/06/30 03:30:12;;;;;;;3.02;0.45;;;15.20;99.90;;;;;;1946474;72;21155;-76
2021/06/30 03:32:38;;;;;;;1.05;0.37;;;15.10;99.90;;;;;;1952568;72;21082;-77
2021/06/30 03:35:05;;;;;;;0.75;0.40;;;15.10;99.90;;;;;;1935916;72;21082;-75
2021/06/30 03:37:31;;;;;;;3.22;0.40;;;15.20;99.90;;;;;;1948943;72;21497;-75
2021/06/30 03:39:57;;;;;;;0.50;0.37;;;15.20;99.90;;;;;;1936385;73;21477;-76
2021/06/30 03:42:23;;;;;;;0.20;0.20;;;15.20;99.90;;;;;;1928757;72;21481;-75
2021/06/30 03:44:49;;;;;;;2.20;0.50;;;15.10;99.90;;;;;;1941122;72;21148;-75
2021/06/30 03:47:16;;;;;;;0.45;0.33;;;15.10;99.90;;;;;;1949724;72;21062;-75
2021/06/30 03:49:42;;;;;;;2.75;0.20;;;15.20;99.90;;;;;;1949099;72;21140;-76
2021/06/30 03:52:08;;;;;;;0.80;0.33;;;15.20;99.90;;;;;;1949910;72;21036;-75
2021/06/30 03:54:34;;;;;;;0.90;0.50;;;15.20;99.90;;;;;;1945566;72;21156;-75
2021/06/30 03:57:01;;;;;;;2.60;0.35;;;15.10;99.90;;;;;;1935246;72;21175;-74
2021/06/30 03:59:27;;;;;;;0.45;0.20;;;15.20;99.90;;;;;;1942325;72;21075;-75
2021/06/30 04:01:53;;;;;;;0.17;0.17;;;15.10;99.90;;;;;;1954568;72;21088;-75
2021/06/30 04:04:19;;;;;;;1.92;0.50;;;15.20;99.90;;;;;;1946061;72;21079;-75
2021/06/30 04:06:45;;;;;;;0.33;0.33;;;15.20;99.90;;;;;;1936026;72;21393;-75
2021/06/30 04:09:11;;;;;;;0.30;0.30;;;15.10;99.90;;;;;;1933812;73;21086;-75
2021/06/30 04:11:37;;;;;;;1.45;0.30;;;15.00;99.90;;;;;;1941417;72;21035;-76
2021/06/30 04:14:03;;;;;;;0.80;0.33;;;15.00;99.90;;;;;;1949789;72;21042;-76
2021/06/30 04:16:30;;;;;;;2.62;0.60;;;15.10;99.90;;;;;;1947250;72;21078;-76
2021/06/30 04:18:56;;;;;;;1.02;0.30;;;15.10;99.90;;;;;;1935082;73;21473;-76
2021/06/30 04:21:22;;;;;;;1.50;0.33;;;15.20;99.90;;;;;;1943145;72;21547;-76
2021/06/30 04:23:50;;;;;;;2.52;0.82;;;15.20;99.90;;;;;;1948851;72;21474;-76
2021/06/30 04:26:16;;;;;;;1.60;0.50;;;15.20;99.90;;;;;;1946122;72;21311;-76
2021/06/30 04:28:42;;;;;;;0.40;0.40;;;15.20;99.90;;;;;;1951689;72;21078;-75
2021/06/30 04:31:08;;;;;;;1.55;0.47;;;15.10;99.90;;;;;;1954136;72;21074;-75
2021/06/30 04:33:34;;;;;;;0.65;0.35;;;15.20;99.90;;;;;;1956317;72;21047;-75
2021/06/30 04:36:00;;;;;;;1.55;0.30;;;15.30;99.90;;;;;;1952290;72;21078;-74
2021/06/30 04:38:26;;;;;;;0.55;0.40;;;15.30;99.90;;;;;;1929966;73;21094;-74
2021/06/30 04:40:54;;;;;;;2.85;0.50;;;15.40;99.90;;;;;;1946284;72;21154;-74
2021/06/30 04:43:20;;;;;;;5.72;0.40;;;15.50;99.90;;;;;;1931150;73;21107;-75
2021/06/30 04:45:46;;;;;;;2.67;0.42;;;15.40;99.90;;;;;;1950871;72;21127;-74
2021/06/30 04:48:12;;;;;;;1.10;0.60;;;15.60;99.90;;;;;;1943813;72;21086;-74
2021/06/30 04:50:39;;;;;;;2.22;0.47;;;15.60;99.90;;;;;;1933582;72;21155;-75
2021/06/30 04:53:05;;;;;;;0.50;0.47;;;15.60;99.90;;;;;;1939746;72;21065;-75
2021/06/30 04:55:31;;;;;;;0.95;0.40;;;15.70;99.90;;;;;;1954390;72;21066;-76
2021/06/30 04:57:57;;;;;;;0.75;0.20;;;15.80;99.90;;;;;;1929669;72;21078;-76
2021/06/30 05:00:23;;;;;;;3.40;0.50;;;16.00;99.90;;;;;;1932840;72;21086;-75
2021/06/30 05:02:49;;;;;;;0.20;0.20;;;16.10;99.90;;;;;;1932986;73;21047;-75
2021/06/30 05:05:16;;;;;;;2.27;0.50;;;16.10;99.90;;;;;;1925986;72;21137;-75
2021/06/30 05:07:42;;;;;;;1.70;0.40;;;16.10;99.90;;;;;;1948121;72;21073;-80
2021/06/30 05:10:08;;;;;;;1.82;0.30;;;16.20;99.90;;;;;;1956551;72;21071;-76
2021/06/30 05:12:34;;;;;;;0.17;0.15;;;16.20;99.90;;;;;;1950600;72;21086;-76
2021/06/30 05:15:00;;;;;;;0.20;0.20;;;16.30;99.90;;;;;;1953990;73;21073;-76
2021/06/30 05:17:26;;;;;;;1.85;0.33;;;16.20;99.90;;;;;;1930217;72;21070;-75
2021/06/30 05:19:52;;;;;;;0.98;0.60;;;16.40;99.90;;;;;;1941645;73;21136;-75
2021/06/30 05:22:18;;;;;;;1.20;0.50;;;16.40;99.90;;;;;;1934318;72;21155;-76
2021/06/30 05:24:45;;;;;;;0.90;0.40;;;16.40;99.90;;;;;;1930649;72;21210;-76
2021/06/30 05:27:11;;;;;;;0.93;0.37;;;16.50;99.90;;;;;;1940407;72;21197;-76
2021/06/30 05:29:37;;;;;;;0.28;0.23;;;16.30;99.90;;;;;;1930264;72;21087;-74
2021/06/30 05:32:03;;;;;;;0.45;0.20;;;16.20;99.90;;;;;;1943217;72;21074;-74
2021/06/30 05:34:29;;;;;;;0.45;0.20;;;16.40;99.90;;;;;;1961151;72;21138;-74
2021/06/30 05:36:55;;;;;;;0.33;0.30;;;16.40;99.90;;;;;;1945614;72;21079;-74
2021/06/30 05:39:22;;;;;;;0.50;0.20;;;16.40;99.90;;;;;;1939443;72;21086;-74
2021/06/30 05:41:48;;;;;;;0.65;0.20;;;16.40;99.90;;;;;;1953503;72;21559;-74
2021/06/30 05:44:14;;;;;;;0.50;0.40;;;16.30;99.90;;;;;;1954189;72;21047;-74
2021/06/30 05:46:40;;;;;;;0.72;0.30;;;16.40;99.90;;;;;;1936187;72;21078;-73
2021/06/30 05:49:06;;;;;;;1.30;0.30;;;16.30;99.90;;;;;;1931069;72;21148;-75
2021/06/30 05:51:32;;;;;;;0.13;0.13;;;16.30;99.90;;;;;;1954116;72;21064;-74
2021/06/30 05:53:58;;;;;;;0.25;0.25;;;16.40;99.90;;;;;;1945042;72;21048;-74
2021/06/30 05:56:25;;;;;;;0.55;0.20;;;16.40;99.90;;;;;;1947163;72;21067;-75
2021/06/30 05:58:51;;;;;;;0.72;0.20;;;16.70;99.90;;;;;;1934559;73;21117;-75
2021/06/30 06:01:17;;;;;;;3.00;0.30;;;16.70;99.90;;;;;;1949782;72;21136;-75
2021/06/30 06:03:43;;;;;;;1.55;0.17;;;16.70;99.90;;;;;;1960205;72;21132;-75
2021/06/30 06:06:09;;;;;;;0.85;0.20;;;16.80;99.90;;;;;;1939788;72;21067;-75
2021/06/30 06:08:35;;;;;;;0.25;0.10;;;16.90;99.90;;;;;;1949537;72;21283;-75
2021/06/30 06:11:01;;;;;;;0.68;0.20;;;16.90;99.90;;;;;;1940973;72;21147;-75
2021/06/30 06:13:27;;;;;;;0.37;0.30;;;17.00;99.90;;;;;;1937936;72;21087;-75
2021/06/30 06:15:54;;;;;;;0.55;0.30;;;17.00;99.90;;;;;;1933496;72;21047;-75
2021/06/30 06:18:20;;;;;;;0.30;0.23;;;16.90;99.90;;;;;;1935636;72;21535;-75
2021/06/30 06:20:46;;;;;;;0.80;0.20;;;16.90;99.90;;;;;;1943581;72;21481;-75
2021/06/30 06:23:12;;;;;;;1.10;0.20;;;17.10;99.90;;;;;;1946772;72;21505;-75
2021/06/30 06:25:38;;;;;;;1.42;0.40;;;17.10;99.90;;;;;;1942393;72;21431;-76
2021/06/30 06:28:05;;;;;;;0.55;0.20;;;17.60;99.90;;;;;;1956771;72;21048;-76
2021/06/30 06:30:31;;;;;;;2.00;0.20;;;18.90;99.90;;;;;;1951916;71;22397;-77
2021/06/30 06:32:57;;;;;;;0.45;0.40;;;20.20;99.90;;;;;;1949394;72;21209;-79
2021/06/30 06:35:24;;;;;;;0.55;0.40;;;19.50;99.90;;;;;;1939116;72;21155;-78
2021/06/30 06:37:50;;;;;;;0.60;0.30;;;18.80;99.90;;;;;;1940555;72;21147;-78
2021/06/30 06:40:16;;;;;;;3.58;0.62;;;18.40;99.90;;;;;;1925255;73;21074;-78
2021/06/30 06:42:42;;;;;;;1.22;0.68;;;18.30;99.90;;;;;;1950339;72;21047;-78
2021/06/30 06:45:08;;;;;;;1.07;0.62;;;18.40;99.90;;;;;;1950739;72;21128;-78
2021/06/30 06:47:35;;;;;;;0.85;0.20;;;18.30;99.90;;;;;;1945782;72;21141;-77
2021/06/30 06:50:01;;;;;;;0.28;0.23;;;18.00;99.90;;;;;;1932347;72;21085;-79
2021/06/30 06:52:27;;;;;;;0.20;0.20;;;18.20;99.90;;;;;;1932351;72;21148;-80
2021/06/30 06:54:53;;;;;;;0.42;0.30;;;18.20;99.90;;;;;;1951186;72;21073;-78
2021/06/30 06:57:19;;;;;;;1.05;0.30;;;18.30;99.90;;;;;;1950113;72;21070;-80
2021/06/30 06:59:45;;;;;;;1.80;0.23;;;18.30;99.90;;;;;;1945065;72;21159;-79
2021/06/30 07:02:11;;;;;;;2.02;0.40;;;18.00;99.90;;;;;;1941632;72;21078;-79
2021/06/30 07:04:39;;;;;;;4.25;0.23;;;18.20;99.90;;;;;;1942426;72;21172;-79
2021/06/30 07:07:05;;;;;;;0.65;0.30;;;18.50;99.90;;;;;;1931443;72;21082;-78
2021/06/30 07:09:31;;;;;;;0.72;0.30;;;18.70;99.90;;;;;;1928429;73;21147;-78
2021/06/30 07:11:57;;;;;;;0.20;0.20;;;19.70;99.90;;;;;;1946791;72;21066;-78
2021/06/30 07:14:24;;;;;;;1.90;0.30;;;19.40;99.90;;;;;;1949113;72;21490;-78
2021/06/30 07:16:50;;;;;;;1.27;0.40;;;19.40;99.90;;;;;;1955155;72;21588;-78
2021/06/30 07:19:16;;;;;;;0.10;0.10;;;20.10;99.90;;;;;;1952053;73;21515;-78
2021/06/30 07:21:42;;;;;;;1.55;0.17;;;20.80;99.90;;;;;;1950223;72;21066;-78
2021/06/30 07:24:08;;;;;;;0.30;0.10;;;20.40;99.90;;;;;;1920931;73;21082;-78
2021/06/30 07:26:34;;;;;;;0.13;0.10;;;20.00;99.90;;;;;;1939850;72;21201;-79
2021/06/30 07:29:00;;;;;;;6.22;0.33;;;19.80;99.90;;;;;;1940324;72;21161;-79
2021/06/30 07:31:26;;;;;;;0.60;0.20;;;19.70;99.90;;;;;;1934875;73;21140;-79
2021/06/30 07:33:53;;;;;;;0.20;0.20;;;19.50;99.90;;;;;;1951198;72;21074;-77
2021/06/30 07:36:19;;;;;;;2.80;0.20;;;19.60;99.90;;;;;;1943121;72;21156;-79
2021/06/30 07:38:46;;;;;;;2.08;0.13;;;19.10;99.90;;;;;;1940048;72;21474;-78
2021/06/30 07:41:12;;;;;;;0.28;0.13;;;19.10;99.90;;;;;;1947812;72;21487;-79
2021/06/30 07:43:39;;;;;;;0.20;0.20;;;18.80;99.90;;;;;;1916378;72;21553;-79
2021/06/30 07:46:05;;;;;;;0.85;0.35;;;19.00;99.90;;;;;;1930236;73;21258;-80
2021/06/30 07:48:31;;;;;;;1.80;0.28;;;19.30;99.90;;;;;;1929725;73;21141;-81
2021/06/30 07:50:58;;;;;;;0.13;0.10;;;19.40;99.90;;;;;;1946893;72;21075;-81
2021/06/30 07:53:24;;;;;;;0.10;0.10;;;19.40;99.90;;;;;;1943634;72;21064;-80
2021/06/30 07:55:50;;;;;;;0.20;0.20;;;19.40;99.90;;;;;;1949901;72;21073;-81
2021/06/30 07:58:18;;;;;;;0.03;0.03;;;19.50;99.90;;;;;;1939434;72;21082;-80
2021/06/30 08:00:44;;;;;;;0.42;0.23;;;19.50;99.90;;;;;;1934420;72;21143;-81
2021/06/30 08:03:10;;;;;;;0.25;0.25;;;19.40;99.90;;;;;;1933924;72;21133;-79
2021/06/30 08:05:36;;;;;;;0.10;0.10;;;19.30;99.90;;;;;;1935577;73;21082;-79
2021/06/30 08:08:02;;;;;;;2.90;0.40;;;19.10;99.90;;;;;;1948366;72;21144;-78
2021/06/30 08:10:28;;;;;;;1.42;0.37;;;18.90;99.90;;;;;;1942333;72;21143;-78
2021/06/30 08:12:54;;;;;;;0.75;0.10;;;19.00;99.90;;;;;;1936781;72;21052;-79
2021/06/30 08:15:21;;;;;;;0.10;0.10;;;18.90;99.90;;;;;;1936955;72;21070;-80
2021/06/30 08:17:47;;;;;;;0.25;0.10;;;18.60;99.90;;;;;;1944231;72;21078;-77
2021/06/30 08:20:13;;;;;;;0.10;0.10;;;18.80;99.90;;;;;;1946562;72;21136;-77
2021/06/30 08:22:39;;;;;;;0.30;0.20;;;18.80;99.90;;;;;;1936652;72;21080;-78
2021/06/30 08:25:05;;;;;;;0.28;0.20;;;18.70;99.90;;;;;;1931803;72;21152;-78
2021/06/30 08:27:31;;;;;;;0.53;0.10;;;18.80;99.90;;;;;;1942893;72;21230;-77
2021/06/30 08:30:00;;;;;;;0.37;0.13;;;18.60;99.90;;;;;;1936975;72;21144;-78
2021/06/30 08:32:27;;;;;;;0.10;0.10;;;18.70;99.90;;;;;;1945107;72;21040;-78
2021/06/30 08:34:53;;;;;;;1.65;0.20;;;18.80;99.90;;;;;;1940367;72;21074;-77
2021/06/30 08:37:20;;;;;;;0.20;0.10;;;18.80;99.90;;;;;;1924676;73;21143;-77
2021/06/30 08:39:47;;;;;;;0.35;0.10;;;18.80;99.90;;;;;;1939357;72;21265;-78
2021/06/30 08:42:13;;;;;;;1.07;0.10;;;18.60;99.90;;;;;;1920687;73;21177;-77
2021/06/30 08:44:39;;;;;;;5.28;0.10;;;18.50;99.90;;;;;;1932143;72;21152;-79
2021/06/30 08:47:05;;;;;;;0.20;0.20;;;18.40;99.90;;;;;;1947594;72;21070;-79
2021/06/30 08:49:31;;;;;;;0.25;0.15;;;18.60;99.90;;;;;;1940342;72;21078;-80
2021/06/30 08:51:57;;;;;;;0.40;0.20;;;18.30;99.90;;;;;;1934715;72;21087;-81
2021/06/30 08:54:24;;;;;;;0.98;0.33;;;18.30;99.90;;;;;;1936617;72;21086;-78
2021/06/30 08:56:50;;;;;;;0.57;0.40;;;18.60;99.90;;;;;;1928789;72;21141;-80
2021/06/30 08:59:16;;;;;;;0.20;0.20;;;18.80;99.90;;;;;;1943809;72;21059;-79
2021/06/30 09:01:43;;;;;;;4.17;0.47;;;18.90;99.90;;;;;;1944080;72;21085;-80
2021/06/30 09:04:12;;;;;;;0.30;0.30;;;19.30;99.90;;;;;;1928601;72;21131;-79
2021/06/30 09:06:37;;;;;;;0.00;0.00;;;19.80;99.90;;;;;;1937096;73;21064;-80
2021/06/30 09:09:04;;;;;;;0.15;0.15;;;19.90;99.90;;;;;;1930599;73;21139;-79
2021/06/30 09:11:31;;;;;;;1.05;0.28;;;19.80;99.90;;;;;;1948442;72;21141;-80
2021/06/30 09:13:57;;;;;;;0.33;0.10;;;19.40;99.90;;;;;;1954157;73;21075;-80
2021/06/30 09:16:25;;;;;;;0.53;0.20;;;19.30;99.90;;;;;;1936660;73;21156;-80
2021/06/30 09:18:51;;;;;;;0.37;0.20;;;19.30;99.90;;;;;;1926472;73;21079;-80
2021/06/30 09:21:18;;;;;;;0.10;0.10;;;19.90;99.90;;;;;;1934185;74;21090;-80
2021/06/30 09:23:44;;;;;;;0.40;0.25;;;20.10;99.90;;;;;;1931906;73;21052;-81
2021/06/30 09:26:10;;;;;;;0.10;0.10;;;19.50;99.90;;;;;;1941533;73;21055;-80
2021/06/30 09:28:36;;;;;;;0.95;0.20;;;18.70;99.90;;;;;;1933334;71;21064;-78
2021/06/30 09:31:02;;;;;;;3.58;0.28;;;17.80;99.90;;;;;;1929223;74;21107;-80
2021/06/30 09:33:28;;;;;;;1.05;0.23;;;16.90;99.90;;;;;;1928917;74;21079;-80
2021/06/30 09:35:56;;;;;;;1.15;0.37;;;16.70;99.90;;;;;;1929138;74;21075;-80
2021/06/30 09:38:22;;;;;;;0.23;0.23;;;16.60;99.90;;;;;;1936659;72;21264;-80
2021/06/30 09:40:48;;;;;;;0.90;0.35;;;16.70;99.90;;;;;;1931678;72;21150;-80
2021/06/30 09:43:14;;;;;;;1.02;0.42;;;16.80;99.90;;;;;;1928626;74;21044;-80
2021/06/30 09:45:44;;;;;;;1.65;0.70;;;17.00;99.90;;;;;;1928937;74;21076;-81
2021/06/30 09:48:08;;;;;;;0.95;0.33;;;17.30;99.90;;;;;;1930540;74;21104;-81
2021/06/30 09:50:34;;;;;;;0.20;0.20;;;17.50;99.90;;;;;;1908941;73;21137;-82
2021/06/30 09:53:00;;;;;;;0.60;0.30;;;17.70;99.90;;;;;;1929795;73;21064;-82
2021/06/30 09:55:26;;;;;;;0.53;0.37;;;18.40;99.90;;;;;;1930272;74;21164;-81
2021/06/30 09:57:53;;;;;;;0.40;0.37;;;18.80;99.90;;;;;;1931175;74;21137;-81
2021/06/30 10:00:19;;;;;;;4.95;0.30;;;19.10;99.90;;;;;;1928912;74;21073;-81
2021/06/30 10:02:48;;;;;;;1.85;0.75;;;19.20;99.90;;;;;;1928818;74;21045;-82
2021/06/30 10:05:13;;;;;;;1.65;0.40;;;19.10;99.90;;;;;;1929901;74;21056;-82
2021/06/30 10:07:39;;;;;;;0.10;0.10;;;19.30;99.90;;;;;;1937433;72;21484;-82
2021/06/30 10:10:05;;;;;;;5.22;0.28;;;18.90;99.90;;;;;;1928878;73;21499;-80
2021/06/30 10:12:31;;;;;;;2.08;1.05;;;18.60;99.90;;;;;;1928920;74;21224;-76
2021/06/30 10:14:57;;;;;;;1.67;0.40;;;18.20;99.90;;;;;;1934245;74;21079;-79
2021/06/30 10:17:24;;;;;;;0.23;0.23;;;18.10;99.90;;;;;;1930578;74;21036;-79
2021/06/30 10:19:51;;;;;;;1.32;0.30;;;18.00;99.90;;;;;;1929012;74;21091;-80
2021/06/30 10:22:18;;;;;;;0.98;0.20;;;18.20;99.90;;;;;;1930695;74;21100;-81
2021/06/30 10:24:44;;;;;;;0.93;0.33;;;18.20;99.90;;;;;;1930754;74;21064;-80
2021/06/30 10:27:11;;;;;;;0.20;0.10;;;18.10;99.90;;;;;;1929702;74;21139;-79
2021/06/30 10:29:38;;;;;;;0.17;0.17;;;18.30;99.90;;;;;;1929018;74;21063;-78
2021/06/30 10:32:04;;;;;;;0.23;0.20;;;18.50;99.90;;;;;;1936982;73;21065;-82
2021/06/30 10:34:30;;;;;;;0.20;0.10;;;18.70;99.90;;;;;;1932596;73;21271;-82
2021/06/30 10:36:56;;;;;;;0.25;0.15;;;18.90;99.90;;;;;;1928513;74;21084;-79
2021/06/30 10:39:22;;;;;;;0.80;0.40;;;19.10;99.90;;;;;;1930716;74;21138;-79
2021/06/30 10:41:57;;;;;;;0.10;0.10;;;19.20;99.90;;;;;;1929969;74;21114;-79
2021/06/30 10:44:16;;;;;;;0.98;0.40;;;19.50;99.90;;;;;;1933895;72;21490;-79
2021/06/30 10:46:42;;;;;;;3.12;0.35;;;19.70;99.90;;;;;;1921199;73;21096;-80
2021/06/30 10:49:08;;;;;;;0.23;0.23;;;19.50;99.90;;;;;;1935341;73;21153;-79
2021/06/30 10:51:35;;;;;;;0.85;0.40;;;19.50;99.90;;;;;;1930761;74;21036;-79
2021/06/30 10:54:01;;;;;;;4.50;0.40;;;19.40;99.90;;;;;;1931478;74;21063;-77
2021/06/30 10:56:27;;;;;;;0.35;0.30;;;19.50;99.90;;;;;;1933625;74;21141;-77
2021/06/30 10:58:53;;;;;;;4.60;0.23;;;20.00;99.90;;;;;;1930512;74;21140;-77
2021/06/30 11:01:19;;;;;;;0.42;0.30;;;20.10;99.90;;;;;;1928908;74;21056;-76
2021/06/30 11:03:46;;;;;;;1.95;1.05;;;20.30;99.90;;;;;;1928867;74;21522;-76
2021/06/30 11:06:18;;;;;;;0.40;0.30;;;20.30;99.90;;;;;;1929024;74;21530;-76
2021/06/30 11:08:45;;;;;;;0.53;0.20;;;20.50;99.90;;;;;;1941808;73;21173;-76
2021/06/30 11:11:12;;;;;;;0.60;0.30;;;20.10;99.90;;;;;;1928959;74;21527;-77
2021/06/30 11:13:38;;;;;;;4.17;0.30;;;19.70;99.90;;;;;;1931195;74;21048;-77
2021/06/30 11:16:04;;;;;;;0.88;0.30;;;19.50;99.90;;;;;;1905852;73;21120;-77
2021/06/30 11:18:30;;;;;;;0.20;0.20;;;19.20;99.90;;;;;;1929028;74;21133;-77
2021/06/30 11:21:00;;;;;;;0.45;0.37;;;18.90;99.90;;;;;;1929167;74;21149;-78
2021/06/30 11:23:27;;;;;;;1.12;0.40;;;18.60;99.90;;;;;;1928832;74;21088;-77
2021/06/30 11:25:56;;;;;;;3.90;0.40;;;18.40;99.90;;;;;;1929912;74;21104;-76
2021/06/30 11:28:22;;;;;;;5.78;0.20;;;17.90;99.90;;;;;;1929152;74;21114;-77
2021/06/30 11:30:48;;;;;;;4.12;0.82;;;17.80;99.90;;;;;;1905094;74;21058;-77
2021/06/30 11:33:16;;;;;;;0.30;0.30;;;17.60;99.90;;;;;;1937167;73;21188;-78
2021/06/30 11:35:45;;;;;;;0.53;0.45;;;17.30;99.90;;;;;;1953645;73;21129;-77
2021/06/30 11:38:13;;;;;;;0.93;0.53;;;17.30;99.90;;;;;;1933734;73;21104;-78
2021/06/30 11:40:43;;;;;;;5.23;0.53;;;17.70;99.90;;;;;;1929430;74;21169;-76
2021/06/30 11:43:09;;;;;;;0.68;0.37;;;18.30;99.90;;;;;;1928841;74;21145;-75
2021/06/30 11:45:38;;;;;;;0.85;0.42;;;19.00;99.90;;;;;;1929143;74;21181;-77
2021/06/30 11:48:06;;;;;;;0.45;0.30;;;19.60;99.90;;;;;;1931520;74;21075;-76
2021/06/30 11:50:34;;;;;;;0.42;0.33;;;20.00;99.90;;;;;;1929269;74;21225;-77
2021/06/30 11:53:01;;;;;;;0.42;0.33;;;20.30;99.90;;;;;;1935145;73;21115;-76
2021/06/30 11:55:27;;;;;;;1.27;0.60;;;20.40;99.90;;;;;;1939534;73;21079;-76
2021/06/30 11:57:53;;;;;;;2.60;0.65;;;21.20;99.90;;;;;;1948123;72;21078;-77
2021/06/30 12:00:19;;;;;;;2.58;0.50;;;21.20;99.90;;;;;;1945563;72;21598;-77
2021/06/30 12:02:47;;;;;;;0.40;0.25;;;21.00;99.90;;;;;;1945045;73;21059;-77
2021/06/30 12:05:13;;;;;;;0.20;0.20;;;20.70;99.90;;;;;;1941193;73;21079;-76
2021/06/30 12:07:39;;;;;;;1.07;0.50;;;20.00;99.90;;;;;;1929368;74;21068;-76
2021/06/30 12:10:06;;;;;;;0.80;0.40;;;19.10;99.90;;;;;;1929287;74;21080;-75
2021/06/30 12:12:37;;;;;;;3.70;0.53;;;18.50;99.90;;;;;;1929107;74;21105;-80
2021/06/30 12:15:01;;;;;;;4.12;1.15;;;17.90;99.90;;;;;;1929962;73;21554;-75
2021/06/30 12:17:27;;;;;;;0.53;0.30;;;17.90;99.90;;;;;;1939511;73;21137;-76
2021/06/30 12:19:54;;;;;;;4.17;0.62;;;18.20;99.90;;;;;;1928986;74;21149;-76
2021/06/30 12:22:20;;;;;;;0.47;0.47;;;18.40;99.90;;;;;;1929306;74;21076;-73
2021/06/30 12:24:46;;;;;;;0.95;0.40;;;18.80;99.90;;;;;;1931223;74;21070;-78
2021/06/30 12:27:13;;;;;;;5.58;0.40;;;19.20;99.90;;;;;;1929371;74;21107;-79
2021/06/30 12:29:39;;;;;;;2.92;0.60;;;19.80;99.90;;;;;;1929131;74;21068;-78
2021/06/30 12:32:05;;;;;;;2.50;0.70;;;20.10;99.90;;;;;;1929733;74;21072;-78
2021/06/30 12:34:32;;;;;;;3.90;0.70;;;20.30;99.90;;;;;;1941345;73;21495;-78
2021/06/30 12:36:58;;;;;;;0.30;0.20;;;20.50;99.90;;;;;;1930179;73;21469;-79
2021/06/30 12:39:25;;;;;;;1.85;0.62;;;21.00;99.90;;;;;;1938954;73;21036;-78
2021/06/30 12:41:51;;;;;;;7.75;0.50;;;21.60;99.90;;;;;;1941711;73;21078;-79
2021/06/30 12:44:17;;;;;;;3.10;0.93;;;22.00;99.90;;;;;;1934952;73;21138;-79